createdAt,value
2023-05-09T00:00:56.549Z,95166.00
2023-05-09T00:01:56.687Z,95166.00
2023-05-09T00:02:56.652Z,95168.00
2023-05-09T00:03:56.718Z,95166.00
2023-05-09T00:04:56.679Z,95164.00
2023-05-09T00:05:56.745Z,95162.00
2023-05-09T00:06:56.762Z,95164.00
2023-05-09T00:07:56.839Z,95162.00
2023-05-09T00:08:56.885Z,95160.00
2023-05-09T00:09:56.928Z,95158.00
2023-05-09T00:10:56.926Z,95160.00
2023-05-09T00:11:56.996Z,95156.00
2023-05-09T00:12:57.095Z,95156.00
2023-05-09T00:13:57.067Z,95154.00
2023-05-09T00:14:57.150Z,95152.00
2023-05-09T00:15:57.160Z,95150.00
2023-05-09T00:16:57.297Z,95148.00
2023-05-09T00:17:57.387Z,95148.00
2023-05-09T00:18:57.288Z,95146.00
2023-05-09T00:19:57.329Z,95148.00
2023-05-09T00:20:57.402Z,95146.00
2023-05-09T00:21:57.438Z,95146.00
2023-05-09T00:22:57.497Z,95146.00
2023-05-09T00:23:57.538Z,95146.00
2023-05-09T00:24:57.600Z,95148.00
2023-05-09T00:25:57.652Z,95148.00
2023-05-09T00:26:57.706Z,95150.00
2023-05-09T00:27:57.741Z,95152.00
2023-05-09T00:28:57.776Z,95148.00
2023-05-09T00:29:57.823Z,95148.00
2023-05-09T00:30:57.862Z,95146.00
2023-05-09T00:31:57.971Z,95144.00
2023-05-09T00:32:58.025Z,95144.00
2023-05-09T00:33:58.112Z,95144.00
2023-05-09T00:34:58.123Z,95136.00
2023-05-09T00:35:58.117Z,95136.00
2023-05-09T00:36:58.178Z,95144.00
2023-05-09T00:37:58.241Z,95136.00
2023-05-09T00:38:58.299Z,95136.00
2023-05-09T00:39:58.312Z,95136.00
2023-05-09T00:40:58.359Z,95134.00
2023-05-09T00:41:58.431Z,95134.00
2023-05-09T00:42:58.494Z,95130.00
2023-05-09T00:43:58.551Z,95130.00
2023-05-09T00:44:58.550Z,95129.00
2023-05-09T00:45:58.679Z,95129.00
2023-05-09T00:46:58.667Z,95130.00
2023-05-09T00:47:58.754Z,95125.00
2023-05-09T00:48:58.777Z,95127.00
2023-05-09T00:49:58.861Z,95125.00
2023-05-09T00:50:58.875Z,95127.00
2023-05-09T00:51:58.924Z,95123.00
2023-05-09T00:52:58.967Z,95125.00
2023-05-09T00:53:58.961Z,95121.00
2023-05-09T00:54:59.070Z,95121.00
2023-05-09T00:55:59.111Z,95119.00
2023-05-09T00:56:59.159Z,95117.00
2023-05-09T00:57:59.215Z,95119.00
2023-05-09T00:58:59.254Z,95117.00
2023-05-09T00:59:59.324Z,95117.00
2023-05-09T01:00:59.414Z,95117.00
2023-05-09T01:01:59.384Z,95117.00
2023-05-09T01:02:59.574Z,95115.00
2023-05-09T01:03:59.499Z,95117.00
2023-05-09T01:04:59.563Z,95115.00
2023-05-09T01:05:59.695Z,95113.00
2023-05-09T01:06:59.660Z,95113.00
2023-05-09T01:07:59.742Z,95115.00
2023-05-09T01:08:59.806Z,95111.00
2023-05-09T01:09:59.847Z,95109.00
2023-05-09T01:10:59.889Z,95109.00
2023-05-09T01:11:59.964Z,95107.00
2023-05-09T01:13:00.136Z,95107.00
2023-05-09T01:14:00.132Z,95105.00
2023-05-09T01:15:00.144Z,95107.00
2023-05-09T01:16:00.285Z,95105.00
2023-05-09T01:17:00.247Z,95107.00
2023-05-09T01:18:00.361Z,95107.00
2023-05-09T01:19:00.326Z,95105.00
2023-05-09T01:20:00.383Z,95103.00
2023-05-09T01:21:00.489Z,95103.00
2023-05-09T01:22:00.593Z,95101.00
2023-05-09T01:23:00.549Z,95101.00
2023-05-09T01:24:00.616Z,95099.00
2023-05-09T01:25:00.675Z,95097.00
2023-05-09T01:26:00.720Z,95099.00
2023-05-09T01:27:00.789Z,95099.00
2023-05-09T01:28:00.826Z,95097.00
2023-05-09T01:29:00.904Z,95099.00
2023-05-09T01:30:00.957Z,95099.00
2023-05-09T01:31:01.050Z,95101.00
2023-05-09T01:32:01.088Z,95101.00
2023-05-09T01:33:01.163Z,95103.00
2023-05-09T01:34:01.197Z,95101.00
2023-05-09T01:35:01.284Z,95103.00
2023-05-09T01:36:01.359Z,95099.00
2023-05-09T01:37:01.362Z,95097.00
2023-05-09T01:38:01.494Z,95103.00
2023-05-09T01:39:01.534Z,95097.00
2023-05-09T01:40:01.565Z,95097.00
2023-05-09T01:41:01.637Z,95097.00
2023-05-09T01:42:01.711Z,95097.00
2023-05-09T01:43:01.745Z,95097.00
2023-05-09T01:44:01.848Z,95095.00
2023-05-09T01:45:01.856Z,95097.00
2023-05-09T01:46:01.937Z,95099.00
2023-05-09T01:47:02.028Z,95097.00
2023-05-09T01:48:02.056Z,95099.00
2023-05-09T01:49:02.109Z,95095.00
2023-05-09T01:50:02.165Z,95097.00
2023-05-09T01:51:02.255Z,95095.00
2023-05-09T01:52:02.290Z,95097.00
2023-05-09T01:53:02.344Z,95097.00
2023-05-09T01:54:02.502Z,95095.00
2023-05-09T01:55:02.493Z,95091.00
2023-05-09T01:56:02.551Z,95091.00
2023-05-09T01:57:02.569Z,95093.00
2023-05-09T01:58:02.669Z,95093.00
2023-05-09T01:59:02.763Z,95095.00
2023-05-09T02:00:02.809Z,95093.00
2023-05-09T02:01:02.889Z,95093.00
2023-05-09T02:02:02.973Z,95093.00
2023-05-09T02:03:02.985Z,95091.00
2023-05-09T02:04:03.005Z,95091.00
2023-05-09T02:05:03.087Z,95089.00
2023-05-09T02:06:03.152Z,95089.00
2023-05-09T02:07:03.231Z,95085.00
2023-05-09T02:08:03.241Z,95087.00
2023-05-09T02:09:03.329Z,95085.00
2023-05-09T02:10:03.461Z,95087.00
2023-05-09T02:11:03.454Z,95083.00
2023-05-09T02:12:03.498Z,95087.00
2023-05-09T02:13:03.577Z,95085.00
2023-05-09T02:14:03.599Z,95085.00
2023-05-09T02:15:03.657Z,95085.00
2023-05-09T02:16:03.720Z,95085.00
2023-05-09T02:17:03.801Z,95083.00
2023-05-09T02:18:03.864Z,95085.00
2023-05-09T02:19:03.902Z,95080.00
2023-05-09T02:20:03.965Z,95080.00
2023-05-09T02:21:04.039Z,95080.00
2023-05-09T02:22:04.047Z,95080.00
2023-05-09T02:23:04.138Z,95080.00
2023-05-09T02:24:04.136Z,95080.00
2023-05-09T02:25:04.172Z,95080.00
2023-05-09T02:26:04.317Z,95080.00
2023-05-09T02:27:04.304Z,95076.00
2023-05-09T02:28:04.452Z,95076.00
2023-05-09T02:29:04.337Z,95078.00
2023-05-09T02:30:04.432Z,95074.00
2023-05-09T02:31:04.430Z,95074.00
2023-05-09T02:32:04.574Z,95072.00
2023-05-09T02:33:04.592Z,95072.00
2023-05-09T02:34:04.612Z,95070.00
2023-05-09T02:35:04.673Z,95070.00
2023-05-09T02:36:04.798Z,95070.00
2023-05-09T02:37:04.834Z,95068.00
2023-05-09T02:38:04.900Z,95068.00
2023-05-09T02:39:04.970Z,95070.00
2023-05-09T02:40:04.967Z,95068.00
2023-05-09T02:41:05.088Z,95068.00
2023-05-09T02:42:05.149Z,95068.00
2023-05-09T02:43:05.130Z,95070.00
2023-05-09T02:44:05.156Z,95068.00
2023-05-09T02:45:05.239Z,95066.00
2023-05-09T02:46:05.297Z,95070.00
2023-05-09T02:47:05.366Z,95070.00
2023-05-09T02:48:07.707Z,95068.00
2023-05-09T02:49:05.443Z,95066.00
2023-05-09T02:50:05.448Z,95064.00
2023-05-09T02:51:05.499Z,95066.00
2023-05-09T02:52:05.383Z,95064.00
2023-05-09T02:53:05.393Z,95064.00
2023-05-09T02:54:05.381Z,95064.00
2023-05-09T02:55:05.379Z,95064.00
2023-05-09T02:56:05.347Z,95064.00
2023-05-09T02:57:05.383Z,95062.00
2023-05-09T02:58:12.659Z,95060.00
2023-05-09T02:59:06.369Z,95064.00
2023-05-09T03:00:05.348Z,95062.00
2023-05-09T03:01:05.462Z,95062.00
2023-05-09T03:02:05.314Z,95062.00
2023-05-09T03:03:05.359Z,95058.00
2023-05-09T03:04:05.361Z,95056.00
2023-05-09T03:05:05.343Z,95056.00
2023-05-09T03:06:05.285Z,95056.00
2023-05-09T03:07:05.274Z,95054.00
2023-05-09T03:08:05.305Z,95054.00
2023-05-09T03:09:05.374Z,95056.00
2023-05-09T03:10:05.372Z,95054.00
2023-05-09T03:11:05.433Z,95058.00
2023-05-09T03:12:05.474Z,95056.00
2023-05-09T03:13:05.526Z,95054.00
2023-05-09T03:14:05.582Z,95056.00
2023-05-09T03:15:05.551Z,95056.00
2023-05-09T03:16:05.609Z,95056.00
2023-05-09T03:17:05.618Z,95054.00
2023-05-09T03:18:05.754Z,95052.00
2023-05-09T03:19:05.692Z,95052.00
2023-05-09T03:20:05.701Z,95052.00
2023-05-09T03:21:05.705Z,95052.00
2023-05-09T03:22:05.798Z,95050.00
2023-05-09T03:23:05.807Z,95050.00
2023-05-09T03:24:05.826Z,95050.00
2023-05-09T03:25:05.896Z,95050.00
2023-05-09T03:26:05.917Z,95050.00
2023-05-09T03:27:05.935Z,95050.00
2023-05-09T03:28:05.968Z,95052.00
2023-05-09T03:29:06.038Z,95052.00
2023-05-09T03:30:06.096Z,95052.00
2023-05-09T03:31:06.079Z,95052.00
2023-05-09T03:32:06.097Z,95052.00
2023-05-09T03:33:06.208Z,95050.00
2023-05-09T03:34:06.310Z,95052.00
2023-05-09T03:35:06.300Z,95052.00
2023-05-09T03:36:06.287Z,95050.00
2023-05-09T03:37:06.304Z,95050.00
2023-05-09T03:38:06.334Z,95048.00
2023-05-09T03:39:06.393Z,95048.00
2023-05-09T03:40:06.513Z,95052.00
2023-05-09T03:41:06.450Z,95052.00
2023-05-09T03:42:06.517Z,95052.00
2023-05-09T03:43:06.527Z,95050.00
2023-05-09T03:44:06.532Z,95052.00
2023-05-09T03:45:06.557Z,95052.00
2023-05-09T03:46:06.951Z,95050.00
2023-05-09T03:47:06.699Z,95048.00
2023-05-09T03:48:06.703Z,95048.00
2023-05-09T03:49:06.695Z,95044.00
2023-05-09T03:50:06.713Z,95046.00
2023-05-09T03:51:06.729Z,95044.00
2023-05-09T03:52:06.794Z,95044.00
2023-05-09T03:53:06.810Z,95048.00
2023-05-09T03:54:06.843Z,95046.00
2023-05-09T03:55:06.864Z,95042.00
2023-05-09T03:56:06.907Z,95046.00
2023-05-09T03:57:06.908Z,95044.00
2023-05-09T03:58:06.944Z,95050.00
2023-05-09T03:59:06.961Z,95050.00
2023-05-09T04:00:07.010Z,95044.00
2023-05-09T04:01:07.066Z,95050.00
2023-05-09T04:02:07.223Z,95050.00
2023-05-09T04:03:07.181Z,95048.00
2023-05-09T04:04:07.361Z,95048.00
2023-05-09T04:05:07.184Z,95048.00
2023-05-09T04:06:07.153Z,95050.00
2023-05-09T04:07:07.210Z,95050.00
2023-05-09T04:08:07.249Z,95046.00
2023-05-09T04:09:07.266Z,95046.00
2023-05-09T04:10:07.261Z,95050.00
2023-05-09T04:11:07.298Z,95046.00
2023-05-09T04:12:07.329Z,95050.00
2023-05-09T04:13:07.372Z,95050.00
2023-05-09T04:14:07.430Z,95050.00
2023-05-09T04:15:07.398Z,95054.00
2023-05-09T04:16:07.476Z,95050.00
2023-05-09T04:17:07.564Z,95050.00
2023-05-09T04:18:07.690Z,95052.00
2023-05-09T04:19:07.518Z,95052.00
2023-05-09T04:20:07.506Z,95050.00
2023-05-09T04:21:07.498Z,95052.00
2023-05-09T04:22:07.553Z,95048.00
2023-05-09T04:23:07.558Z,95050.00
2023-05-09T04:24:07.575Z,95050.00
2023-05-09T04:25:07.570Z,95048.00
2023-05-09T04:26:07.598Z,95050.00
2023-05-09T04:27:07.652Z,95050.00
2023-05-09T04:28:07.640Z,95052.00
2023-05-09T04:29:07.700Z,95054.00
2023-05-09T04:30:07.705Z,95052.00
2023-05-09T04:31:07.847Z,95052.00
2023-05-09T04:32:07.810Z,95054.00
2023-05-09T04:33:07.893Z,95054.00
2023-05-09T04:34:07.961Z,95052.00
2023-05-09T04:35:07.917Z,95054.00
2023-05-09T04:36:07.954Z,95054.00
2023-05-09T04:37:08.001Z,95052.00
2023-05-09T04:38:08.050Z,95054.00
2023-05-09T04:39:08.078Z,95050.00
2023-05-09T04:40:08.098Z,95054.00
2023-05-09T04:41:08.143Z,95054.00
2023-05-09T04:42:08.176Z,95052.00
2023-05-09T04:43:08.212Z,95050.00
2023-05-09T04:44:08.200Z,95048.00
2023-05-09T04:45:08.236Z,95044.00
2023-05-09T04:46:08.388Z,95048.00
2023-05-09T04:47:08.345Z,95046.00
2023-05-09T04:48:08.390Z,95044.00
2023-05-09T04:49:08.361Z,95046.00
2023-05-09T04:50:08.482Z,95044.00
2023-05-09T04:51:08.460Z,95044.00
2023-05-09T04:52:08.486Z,95042.00
2023-05-09T04:53:08.528Z,95040.00
2023-05-09T04:54:08.572Z,95042.00
2023-05-09T04:55:08.666Z,95042.00
2023-05-09T04:56:08.653Z,95042.00
2023-05-09T04:57:17.422Z,95044.00
2023-05-09T04:58:09.713Z,95044.00
2023-05-09T04:59:08.674Z,95042.00
2023-05-09T05:00:08.702Z,95042.00
2023-05-09T05:01:08.708Z,95042.00
2023-05-09T05:02:08.685Z,95042.00
2023-05-09T05:03:08.730Z,95044.00
2023-05-09T05:04:08.686Z,95042.00
2023-05-09T05:05:12.133Z,95042.00
2023-05-09T05:06:08.714Z,95040.00
2023-05-09T05:07:08.645Z,95042.00
2023-05-09T05:08:08.653Z,95042.00
2023-05-09T05:09:08.616Z,95042.00
2023-05-09T05:10:08.600Z,95040.00
2023-05-09T05:11:08.598Z,95042.00
2023-05-09T05:12:09.536Z,95040.00
2023-05-09T05:13:08.627Z,95040.00
2023-05-09T05:14:08.580Z,95038.00
2023-05-09T05:15:08.588Z,95038.00
2023-05-09T05:16:08.587Z,95036.00
2023-05-09T05:17:08.607Z,95036.00
2023-05-09T05:18:08.624Z,95036.00
2023-05-09T05:19:08.586Z,95040.00
2023-05-09T05:20:08.557Z,95038.00
2023-05-09T05:21:08.527Z,95036.00
2023-05-09T05:22:08.594Z,95035.00
2023-05-09T05:23:08.554Z,95036.00
2023-05-09T05:24:08.504Z,95035.00
2023-05-09T05:25:08.504Z,95033.00
2023-05-09T05:26:08.500Z,95036.00
2023-05-09T05:27:08.507Z,95035.00
2023-05-09T05:28:08.471Z,95035.00
2023-05-09T05:29:08.480Z,95038.00
2023-05-09T05:30:08.462Z,95036.00
2023-05-09T05:31:08.544Z,95036.00
2023-05-09T05:32:08.498Z,95036.00
2023-05-09T05:33:08.458Z,95035.00
2023-05-09T05:34:08.454Z,95036.00
2023-05-09T05:35:08.485Z,95036.00
2023-05-09T05:36:08.470Z,95038.00
2023-05-09T05:37:08.469Z,95042.00
2023-05-09T05:38:08.612Z,95040.00
2023-05-09T05:39:08.608Z,95040.00
2023-05-09T05:40:08.666Z,95040.00
2023-05-09T05:41:08.657Z,95042.00
2023-05-09T05:42:08.661Z,95044.00
2023-05-09T05:43:08.712Z,95040.00
2023-05-09T05:44:08.724Z,95046.00
2023-05-09T05:45:08.720Z,95044.00
2023-05-09T05:46:08.713Z,95040.00
2023-05-09T05:47:08.704Z,95044.00
2023-05-09T05:48:08.776Z,95042.00
2023-05-09T05:49:08.754Z,95042.00
2023-05-09T05:50:09.193Z,95050.00
2023-05-09T05:51:08.768Z,95048.00
2023-05-09T05:52:08.743Z,95050.00
2023-05-09T05:53:08.753Z,95048.00
2023-05-09T05:54:08.813Z,95048.00
2023-05-09T05:55:08.755Z,95035.00
2023-05-09T05:56:08.788Z,95038.00
2023-05-09T05:57:08.776Z,95036.00
2023-05-09T05:58:08.772Z,95036.00
2023-05-09T05:59:09.502Z,95033.00
2023-05-09T06:00:08.789Z,95035.00
2023-05-09T06:01:08.811Z,95035.00
2023-05-09T06:02:08.857Z,95033.00
2023-05-09T06:03:09.002Z,95033.00
2023-05-09T06:04:08.851Z,95031.00
2023-05-09T06:05:08.823Z,95029.00
2023-05-09T06:06:08.828Z,95029.00
2023-05-09T06:07:08.842Z,95027.00
2023-05-09T06:08:08.940Z,95025.00
2023-05-09T06:09:08.860Z,95023.00
2023-05-09T06:10:08.996Z,95023.00
2023-05-09T06:11:08.913Z,95023.00
2023-05-09T06:12:08.933Z,95023.00
2023-05-09T06:13:08.970Z,95023.00
2023-05-09T06:14:08.940Z,95023.00
2023-05-09T06:15:08.949Z,95025.00
2023-05-09T06:16:18.674Z,95021.00
2023-05-09T06:17:10.009Z,95023.00
2023-05-09T06:18:09.084Z,95023.00
2023-05-09T06:19:08.991Z,95021.00
2023-05-09T06:20:08.923Z,95023.00
2023-05-09T06:21:08.937Z,95021.00
2023-05-09T06:22:08.942Z,95033.00
2023-05-09T06:23:08.910Z,95033.00
2023-05-09T06:24:16.699Z,95035.00
2023-05-09T06:25:11.214Z,95035.00
2023-05-09T06:26:09.007Z,95033.00
2023-05-09T06:27:08.918Z,95035.00
2023-05-09T06:28:08.877Z,95035.00
2023-05-09T06:29:08.902Z,95035.00
2023-05-09T06:30:23.997Z,95035.00
2023-05-09T06:31:10.022Z,95035.00
2023-05-09T06:32:08.872Z,95031.00
2023-05-09T06:33:08.914Z,95029.00
2023-05-09T06:34:08.879Z,95027.00
2023-05-09T06:35:08.861Z,95029.00
2023-05-09T06:36:08.913Z,95025.00
2023-05-09T06:37:08.838Z,95025.00
2023-05-09T06:38:08.841Z,95011.00
2023-05-09T06:39:08.844Z,95009.00
2023-05-09T06:40:08.871Z,95009.00
2023-05-09T06:41:08.863Z,95011.00
2023-05-09T06:42:08.869Z,95007.00
2023-05-09T06:43:08.811Z,95007.00
2023-05-09T06:44:08.837Z,95009.00
2023-05-09T06:45:08.877Z,95011.00
2023-05-09T06:46:08.883Z,95009.00
2023-05-09T06:47:08.848Z,95007.00
2023-05-09T06:48:08.897Z,95005.00
2023-05-09T06:49:08.880Z,95005.00
2023-05-09T06:50:08.855Z,95003.00
2023-05-09T06:51:08.863Z,95007.00
2023-05-09T06:52:08.963Z,95007.00
2023-05-09T06:53:08.984Z,95005.00
2023-05-09T06:54:09.060Z,95003.00
2023-05-09T06:55:09.127Z,95001.00
2023-05-09T06:56:09.187Z,95001.00
2023-05-09T06:57:09.234Z,95003.00
2023-05-09T06:58:09.318Z,94999.00
2023-05-09T06:59:09.258Z,94999.00
2023-05-09T07:00:09.340Z,94997.00
2023-05-09T07:01:09.307Z,94999.00
2023-05-09T07:02:09.360Z,94997.00
2023-05-09T07:03:09.470Z,94997.00
2023-05-09T07:04:09.460Z,94999.00
2023-05-09T07:05:09.557Z,94997.00
2023-05-09T07:06:09.552Z,94997.00
2023-05-09T07:07:09.612Z,94997.00
2023-05-09T07:08:09.666Z,95001.00
2023-05-09T07:09:09.710Z,94997.00
2023-05-09T07:10:11.853Z,94995.00
2023-05-09T07:11:09.740Z,94999.00
2023-05-09T07:12:09.757Z,94997.00
2023-05-09T07:13:09.791Z,94995.00
2023-05-09T07:14:09.877Z,94995.00
2023-05-09T07:15:09.740Z,94993.00
2023-05-09T07:16:09.769Z,94997.00
2023-05-09T07:17:22.212Z,94997.00
2023-05-09T07:18:10.841Z,94995.00
2023-05-09T07:19:09.740Z,94993.00
2023-05-09T07:20:09.686Z,94993.00
2023-05-09T07:21:09.706Z,94989.00
2023-05-09T07:22:09.698Z,94989.00
2023-05-09T07:23:09.665Z,94985.00
2023-05-09T07:24:09.665Z,94981.00
2023-05-09T07:25:10.215Z,94983.00
2023-05-09T07:26:09.683Z,94983.00
2023-05-09T07:27:09.635Z,94981.00
2023-05-09T07:28:09.647Z,94983.00
2023-05-09T07:29:09.618Z,94980.00
2023-05-09T07:30:09.714Z,94981.00
2023-05-09T07:31:09.626Z,94980.00
2023-05-09T07:32:09.688Z,94981.00
2023-05-09T07:33:09.678Z,94981.00
2023-05-09T07:34:09.604Z,94980.00
2023-05-09T07:35:10.277Z,94978.00
2023-05-09T07:36:09.701Z,94978.00
2023-05-09T07:37:09.705Z,94976.00
2023-05-09T07:38:09.715Z,94976.00
2023-05-09T07:39:09.733Z,94974.00
2023-05-09T07:40:09.805Z,94972.00
2023-05-09T07:41:09.814Z,94970.00
2023-05-09T07:42:09.876Z,94970.00
2023-05-09T07:43:09.855Z,94970.00
2023-05-09T07:44:09.957Z,94970.00
2023-05-09T07:45:09.935Z,94966.00
2023-05-09T07:46:10.105Z,94966.00
2023-05-09T07:47:09.973Z,94964.00
2023-05-09T07:48:10.026Z,94964.00
2023-05-09T07:49:10.010Z,94962.00
2023-05-09T07:50:10.061Z,94962.00
2023-05-09T07:51:10.084Z,94958.00
2023-05-09T07:52:10.067Z,94960.00
2023-05-09T07:53:10.109Z,94956.00
2023-05-09T07:54:10.235Z,94956.00
2023-05-09T07:55:10.194Z,94956.00
2023-05-09T07:56:10.201Z,94954.00
2023-05-09T07:57:10.205Z,94952.00
2023-05-09T07:58:10.215Z,94950.00
2023-05-09T07:59:10.272Z,94950.00
2023-05-09T08:00:10.281Z,94950.00
2023-05-09T08:01:10.289Z,94950.00
2023-05-09T08:02:10.383Z,94948.00
2023-05-09T08:03:10.536Z,94946.00
2023-05-09T08:04:10.420Z,94948.00
2023-05-09T08:05:10.370Z,94946.00
2023-05-09T08:06:10.365Z,94940.00
2023-05-09T08:07:10.409Z,94940.00
2023-05-09T08:08:10.418Z,94936.00
2023-05-09T08:09:10.385Z,94934.00
2023-05-09T08:10:10.418Z,94934.00
2023-05-09T08:11:10.411Z,94934.00
2023-05-09T08:12:10.399Z,94933.00
2023-05-09T08:13:10.469Z,94933.00
2023-05-09T08:14:10.424Z,94933.00
2023-05-09T08:15:10.433Z,94929.00
2023-05-09T08:16:10.477Z,94929.00
2023-05-09T08:17:10.426Z,94927.00
2023-05-09T08:18:10.494Z,94921.00
2023-05-09T08:19:10.421Z,94925.00
2023-05-09T08:20:10.399Z,94923.00
2023-05-09T08:21:10.407Z,94919.00
2023-05-09T08:22:10.419Z,94911.00
2023-05-09T08:23:10.457Z,94907.00
2023-05-09T08:24:10.435Z,94905.00
2023-05-09T08:25:10.705Z,94907.00
2023-05-09T08:26:10.522Z,94901.00
2023-05-09T08:27:10.462Z,94903.00
2023-05-09T08:28:10.490Z,94899.00
2023-05-09T08:29:10.466Z,94897.00
2023-05-09T08:30:10.471Z,94897.00
2023-05-09T08:31:10.502Z,94897.00
2023-05-09T08:32:10.446Z,94895.00
2023-05-09T08:33:10.587Z,94895.00
2023-05-09T08:34:10.559Z,94893.00
2023-05-09T08:35:10.526Z,94887.00
2023-05-09T08:36:10.512Z,94878.00
2023-05-09T08:37:11.841Z,94880.00
2023-05-09T08:38:10.623Z,94876.00
2023-05-09T08:39:10.622Z,94872.00
2023-05-09T08:40:10.621Z,94870.00
2023-05-09T08:41:10.661Z,94866.00
2023-05-09T08:42:10.700Z,94866.00
2023-05-09T08:43:10.731Z,94862.00
2023-05-09T08:44:10.786Z,94864.00
2023-05-09T08:45:10.819Z,94862.00
2023-05-09T08:46:10.887Z,94862.00
2023-05-09T08:47:10.901Z,94862.00
2023-05-09T08:48:10.914Z,94860.00
2023-05-09T08:49:10.939Z,94874.00
2023-05-09T08:50:11.032Z,94868.00
2023-05-09T08:51:11.023Z,94870.00
2023-05-09T08:52:11.021Z,94866.00
2023-05-09T08:53:11.120Z,94864.00
2023-05-09T08:54:11.121Z,94864.00
2023-05-09T08:55:11.189Z,94862.00
2023-05-09T08:56:11.143Z,94860.00
2023-05-09T08:57:11.181Z,94862.00
2023-05-09T08:58:11.657Z,94864.00
2023-05-09T08:59:11.250Z,94862.00
2023-05-09T09:00:11.333Z,94862.00
2023-05-09T09:01:11.318Z,94858.00
2023-05-09T09:02:11.311Z,94858.00
2023-05-09T09:03:11.265Z,94854.00
2023-05-09T09:04:11.242Z,94850.00
2023-05-09T09:05:23.952Z,94852.00
2023-05-09T09:06:12.305Z,94846.00
2023-05-09T09:07:11.223Z,94844.00
2023-05-09T09:08:11.253Z,94840.00
2023-05-09T09:09:11.210Z,94836.00
2023-05-09T09:10:11.214Z,94836.00
2023-05-09T09:11:11.234Z,94836.00
2023-05-09T09:12:11.189Z,94833.00
2023-05-09T09:13:11.209Z,94834.00
2023-05-09T09:14:11.193Z,94831.00
2023-05-09T09:15:11.178Z,94834.00
2023-05-09T09:16:11.212Z,94827.00
2023-05-09T09:17:11.161Z,94823.00
2023-05-09T09:18:11.145Z,94823.00
2023-05-09T09:19:11.142Z,94817.00
2023-05-09T09:20:11.178Z,94815.00
2023-05-09T09:21:11.160Z,94813.00
2023-05-09T09:22:11.279Z,94811.00
2023-05-09T09:23:11.258Z,94813.00
2023-05-09T09:24:11.300Z,94811.00
2023-05-09T09:25:11.350Z,94811.00
2023-05-09T09:26:11.435Z,94809.00
2023-05-09T09:27:11.500Z,94809.00
2023-05-09T09:28:11.539Z,94809.00
2023-05-09T09:29:11.602Z,94809.00
2023-05-09T09:30:11.695Z,94805.00
2023-05-09T09:31:11.721Z,94793.00
2023-05-09T09:32:11.764Z,94787.00
2023-05-09T09:33:11.749Z,94783.00
2023-05-09T09:34:11.788Z,94787.00
2023-05-09T09:35:11.833Z,94793.00
2023-05-09T09:36:12.752Z,94791.00
2023-05-09T09:37:11.958Z,94793.00
2023-05-09T09:38:12.110Z,94787.00
2023-05-09T09:39:12.057Z,94785.00
2023-05-09T09:40:12.327Z,94785.00
2023-05-09T09:41:12.153Z,94782.00
2023-05-09T09:42:12.211Z,94778.00
2023-05-09T09:43:12.327Z,94774.00
2023-05-09T09:44:12.627Z,94774.00
2023-05-09T09:45:12.381Z,94772.00
2023-05-09T09:46:12.470Z,94770.00
2023-05-09T09:47:12.465Z,94766.00
2023-05-09T09:48:12.569Z,94762.00
2023-05-09T09:49:12.649Z,94762.00
2023-05-09T09:50:12.764Z,94758.00
2023-05-09T09:51:12.687Z,94760.00
2023-05-09T09:52:12.800Z,94756.00
2023-05-09T09:53:12.845Z,94754.00
2023-05-09T09:54:12.981Z,94754.00
2023-05-09T09:55:12.953Z,94752.00
2023-05-09T09:56:13.017Z,94750.00
2023-05-09T09:57:13.095Z,94746.00
2023-05-09T09:58:13.121Z,94744.00
2023-05-09T09:59:13.171Z,94744.00
2023-05-09T10:00:13.438Z,94742.00
2023-05-09T10:01:13.368Z,94740.00
2023-05-09T10:02:13.348Z,94738.00
2023-05-09T10:03:13.501Z,94723.00
2023-05-09T10:04:13.510Z,94719.00
2023-05-09T10:05:13.552Z,94721.00
2023-05-09T10:06:13.536Z,94719.00
2023-05-09T10:07:15.057Z,94715.00
2023-05-09T10:08:13.703Z,94713.00
2023-05-09T10:09:13.675Z,94711.00
2023-05-09T10:10:13.973Z,94707.00
2023-05-09T10:11:13.790Z,94713.00
2023-05-09T10:12:13.797Z,94709.00
2023-05-09T10:13:13.795Z,94707.00
2023-05-09T10:14:13.803Z,94707.00
2023-05-09T10:15:13.811Z,94703.00
2023-05-09T10:16:13.933Z,94701.00
2023-05-09T10:17:14.085Z,94701.00
2023-05-09T10:18:13.898Z,94699.00
2023-05-09T10:19:13.902Z,94697.00
2023-05-09T10:20:14.075Z,94693.00
2023-05-09T10:21:13.904Z,94691.00
2023-05-09T10:22:13.919Z,94691.00
2023-05-09T10:23:13.909Z,94687.00
2023-05-09T10:24:13.918Z,94687.00
2023-05-09T10:25:14.077Z,94685.00
2023-05-09T10:26:14.016Z,94680.00
2023-05-09T10:27:13.960Z,94680.00
2023-05-09T10:28:14.138Z,94676.00
2023-05-09T10:29:13.955Z,94674.00
2023-05-09T10:30:13.987Z,94670.00
2023-05-09T10:31:14.045Z,94684.00
2023-05-09T10:32:13.990Z,94680.00
2023-05-09T10:33:14.029Z,94682.00
2023-05-09T10:34:14.095Z,94676.00
2023-05-09T10:35:14.386Z,94680.00
2023-05-09T10:36:14.218Z,94680.00
2023-05-09T10:37:14.265Z,94678.00
2023-05-09T10:38:14.366Z,94676.00
2023-05-09T10:39:14.376Z,94670.00
2023-05-09T10:40:14.400Z,94670.00
2023-05-09T10:41:14.469Z,94668.00
2023-05-09T10:42:14.570Z,94666.00
2023-05-09T10:43:14.522Z,94662.00
2023-05-09T10:44:14.576Z,94658.00
2023-05-09T10:45:14.776Z,94656.00
2023-05-09T10:46:14.656Z,94654.00
2023-05-09T10:47:14.660Z,94634.00
2023-05-09T10:48:14.651Z,94650.00
2023-05-09T10:49:14.743Z,94644.00
2023-05-09T10:50:14.718Z,94644.00
2023-05-09T10:51:14.765Z,94640.00
2023-05-09T10:52:14.775Z,94638.00
2023-05-09T10:53:14.841Z,94638.00
2023-05-09T10:54:14.855Z,94632.00
2023-05-09T10:55:15.159Z,94632.00
2023-05-09T10:56:14.866Z,94630.00
2023-05-09T10:57:14.901Z,94621.00
2023-05-09T10:58:15.029Z,94617.00
2023-05-09T10:59:14.943Z,94615.00
2023-05-09T11:00:14.979Z,94615.00
2023-05-09T11:01:15.053Z,94611.00
2023-05-09T11:02:15.013Z,94609.00
2023-05-09T11:03:15.076Z,94605.00
2023-05-09T11:04:15.106Z,94603.00
2023-05-09T11:05:15.293Z,94597.00
2023-05-09T11:06:15.099Z,94595.00
2023-05-09T11:07:15.096Z,94593.00
2023-05-09T11:08:15.107Z,94593.00
2023-05-09T11:09:15.124Z,94591.00
2023-05-09T11:10:15.130Z,94593.00
2023-05-09T11:11:15.136Z,94589.00
2023-05-09T11:12:15.138Z,94587.00
2023-05-09T11:13:15.653Z,94585.00
2023-05-09T11:14:15.247Z,94578.00
2023-05-09T11:15:15.457Z,94576.00
2023-05-09T11:16:15.286Z,94574.00
2023-05-09T11:17:15.204Z,94560.00
2023-05-09T11:18:15.549Z,94560.00
2023-05-09T11:19:15.257Z,94562.00
2023-05-09T11:20:15.645Z,94556.00
2023-05-09T11:21:15.579Z,94556.00
2023-05-09T11:22:16.138Z,94550.00
2023-05-09T11:23:15.620Z,94546.00
2023-05-09T11:24:15.578Z,94548.00
2023-05-09T11:25:15.702Z,94548.00
2023-05-09T11:26:15.649Z,94540.00
2023-05-09T11:27:15.679Z,94537.00
2023-05-09T11:28:15.804Z,94537.00
2023-05-09T11:29:15.837Z,94533.00
2023-05-09T11:30:15.974Z,94529.00
2023-05-09T11:31:15.966Z,94529.00
2023-05-09T11:32:16.108Z,94529.00
2023-05-09T11:33:16.076Z,94525.00
2023-05-09T11:34:16.072Z,94527.00
2023-05-09T11:35:16.502Z,94521.00
2023-05-09T11:36:16.148Z,94525.00
2023-05-09T11:37:16.229Z,94521.00
2023-05-09T11:38:16.249Z,94517.00
2023-05-09T11:39:16.287Z,94523.00
2023-05-09T11:40:16.407Z,94519.00
2023-05-09T11:41:16.333Z,94519.00
2023-05-09T11:42:16.353Z,94517.00
2023-05-09T11:43:16.371Z,94515.00
2023-05-09T11:44:16.395Z,94509.00
2023-05-09T11:45:16.633Z,94505.00